createdAt,value
2018-07-19T00:00:45.385Z,59.69
2018-07-19T00:05:48.489Z,59.25
2018-07-19T00:10:51.622Z,60.23
2018-07-19T00:15:54.786Z,60.62
2018-07-19T00:20:58.105Z,60.95
2018-07-19T00:26:01.341Z,61.42
2018-07-19T00:31:04.505Z,61.57
2018-07-19T00:36:07.858Z,62.29
2018-07-19T00:41:11.052Z,60.72
2018-07-19T00:46:14.193Z,59.76
2018-07-19T00:51:17.380Z,60.91
2018-07-19T00:56:20.543Z,60.59
2018-07-19T01:01:23.660Z,61.17
2018-07-19T01:06:26.814Z,60.80
2018-07-19T01:11:29.961Z,61.96
2018-07-19T01:16:33.088Z,63.17
2018-07-19T01:21:36.316Z,62.54
2018-07-19T01:26:39.460Z,63.41
2018-07-19T01:31:42.637Z,63.34
2018-07-19T01:36:47.904Z,63.81
2018-07-19T01:42:29.632Z,62.82
2018-07-19T01:47:32.739Z,64.20
2018-07-19T01:52:35.925Z,64.94
2018-07-19T01:57:39.011Z,65.05
2018-07-19T02:02:42.115Z,64.81
2018-07-19T02:07:45.229Z,64.75
2018-07-19T02:12:48.314Z,65.35
2018-07-19T02:17:51.423Z,64.42
2018-07-19T02:22:54.539Z,65.48
2018-07-19T02:27:57.757Z,65.12
2018-07-19T02:33:00.885Z,65.98
2018-07-19T02:38:04.074Z,67.11
2018-07-19T02:43:07.200Z,66.93
2018-07-19T02:48:10.363Z,67.79
2018-07-19T02:53:13.414Z,67.10
2018-07-19T02:58:16.570Z,68.07
2018-07-19T03:03:19.712Z,67.94
2018-07-19T03:08:22.950Z,68.27
2018-07-19T03:13:26.925Z,69.28
2018-07-19T03:18:30.167Z,69.24
2018-07-19T03:23:33.404Z,69.13
2018-07-19T03:28:36.540Z,69.09
2018-07-19T03:33:39.661Z,69.16
2018-07-19T03:38:42.780Z,69.48
2018-07-19T03:43:45.877Z,68.01
2018-07-19T03:48:48.977Z,67.85
2018-07-19T03:53:52.088Z,67.21
2018-07-19T03:58:55.265Z,67.01
2018-07-19T04:03:58.452Z,65.51
2018-07-19T04:09:01.645Z,65.70
2018-07-19T04:14:04.905Z,65.06
2018-07-19T04:19:07.989Z,65.50
2018-07-19T04:24:11.055Z,64.93
2018-07-19T04:29:14.196Z,64.62
2018-07-19T04:34:17.313Z,62.65
2018-07-19T04:39:20.474Z,51.13
2018-07-19T04:44:23.605Z,46.31
2018-07-19T04:49:27.610Z,45.15
2018-07-19T04:54:30.863Z,42.36
2018-07-19T04:59:34.101Z,38.22
2018-07-19T05:04:37.510Z,41.07
2018-07-19T05:11:37.177Z,37.80
2018-07-19T05:16:40.383Z,35.96
2018-07-19T05:21:43.544Z,37.41
2018-07-19T05:26:46.680Z,36.26
2018-07-19T05:31:49.875Z,36.02
2018-07-19T05:36:53.065Z,36.72
2018-07-19T05:41:56.289Z,35.68
2018-07-19T05:46:59.496Z,34.89
2018-07-19T05:52:02.707Z,33.87
2018-07-19T05:57:05.863Z,36.75
2018-07-19T06:02:09.104Z,34.06
2018-07-19T06:07:12.321Z,32.94
2018-07-19T06:12:15.430Z,33.25
2018-07-19T06:17:18.583Z,31.41
2018-07-19T06:22:21.763Z,30.70
2018-07-19T06:27:24.979Z,31.34
2018-07-19T06:32:28.222Z,33.02
2018-07-19T06:37:31.450Z,31.64
2018-07-19T06:42:34.708Z,33.94
2018-07-19T06:47:37.864Z,31.11
2018-07-19T06:52:41.075Z,31.95
2018-07-19T06:57:44.187Z,32.14
2018-07-19T07:02:51.388Z,31.10
2018-07-19T07:07:54.939Z,31.24
2018-07-19T07:12:58.213Z,30.86
2018-07-19T07:18:01.528Z,32.50
2018-07-19T07:23:04.797Z,31.79
2018-07-19T07:28:20.646Z,30.68
2018-07-19T07:33:23.769Z,32.23
2018-07-19T07:38:27.037Z,39.65
2018-07-19T07:43:30.358Z,42.44
2018-07-19T07:48:33.530Z,44.71
2018-07-19T07:58:45.971Z,43.30
2018-07-19T08:03:58.365Z,43.93
2018-07-19T08:09:02.173Z,45.98
2018-07-19T08:14:05.277Z,40.60
2018-07-19T08:19:08.372Z,39.02
2018-07-19T08:24:11.615Z,34.96
2018-07-19T08:29:14.787Z,32.20
2018-07-19T08:34:17.912Z,34.51
2018-07-19T08:39:21.127Z,36.45
2018-07-19T08:44:27.315Z,38.10
2018-07-19T08:49:30.479Z,37.09
2018-07-19T08:54:35.747Z,31.86
2018-07-19T08:59:40.154Z,33.42
2018-07-19T09:04:43.332Z,32.70
2018-07-19T09:09:46.558Z,31.86
2018-07-19T09:14:49.692Z,33.64
2018-07-19T09:19:53.036Z,37.36
2018-07-19T09:24:56.151Z,41.81
2018-07-19T09:29:59.306Z,43.56
2018-07-19T09:35:02.565Z,44.08
2018-07-19T09:40:05.760Z,44.62
2018-07-19T09:45:08.999Z,45.95
2018-07-19T09:50:12.259Z,48.68
2018-07-19T09:55:15.638Z,49.27
2018-07-19T10:00:19.464Z,51.72
2018-07-19T10:05:22.593Z,51.44
2018-07-19T10:10:25.685Z,50.26
2018-07-19T10:15:29.161Z,50.27
2018-07-19T10:20:32.323Z,51.38
2018-07-19T10:25:35.604Z,51.23
2018-07-19T10:30:38.860Z,50.92
2018-07-19T10:35:44.159Z,49.28
2018-07-19T10:40:47.353Z,46.95
2018-07-19T10:45:50.780Z,44.26
2018-07-19T10:50:53.940Z,45.35
2018-07-19T10:55:57.060Z,46.50
2018-07-19T11:01:00.293Z,47.01
2018-07-19T11:06:03.634Z,49.19
2018-07-19T11:11:07.055Z,48.90
2018-07-19T11:16:10.267Z,45.85
2018-07-19T11:21:17.594Z,41.88
2018-07-19T11:26:20.699Z,40.95
2018-07-19T11:31:23.898Z,43.58
2018-07-19T11:36:27.069Z,44.50
2018-07-19T11:41:30.222Z,43.62
2018-07-19T11:46:33.490Z,42.71
2018-07-19T11:51:36.839Z,39.35
2018-07-19T11:56:40.074Z,36.11
2018-07-19T12:01:43.379Z,37.29
2018-07-19T12:06:46.543Z,36.08
2018-07-19T12:11:49.691Z,35.19
2018-07-19T12:16:52.824Z,34.69
2018-07-19T12:21:56.018Z,34.35
2018-07-19T12:26:59.164Z,34.21
2018-07-19T12:32:02.499Z,35.36
2018-07-19T12:37:05.733Z,35.73
2018-07-19T12:42:09.035Z,32.84
2018-07-19T12:47:12.208Z,34.71
2018-07-19T12:52:15.352Z,33.35
2018-07-19T12:57:18.756Z,33.30
2018-07-19T13:02:22.102Z,35.01
2018-07-19T13:07:25.535Z,34.05
2018-07-19T13:12:28.827Z,32.56
2018-07-19T13:17:32.203Z,33.81
2018-07-19T13:22:35.378Z,32.17
2018-07-19T13:27:38.618Z,31.96
2018-07-19T13:32:41.732Z,31.02
2018-07-19T13:37:44.916Z,32.01
2018-07-19T13:42:48.168Z,34.86
2018-07-19T13:47:51.409Z,37.08
2018-07-19T13:53:28.197Z,36.30
2018-07-19T13:58:31.428Z,36.48
2018-07-19T14:03:34.850Z,35.55
2018-07-19T14:08:38.155Z,35.84
2018-07-19T14:13:41.321Z,35.55
2018-07-19T14:18:44.467Z,34.56
2018-07-19T14:28:30.177Z,35.12
2018-07-19T14:33:33.559Z,36.30
2018-07-19T14:38:36.864Z,32.87
2018-07-19T14:45:09.037Z,33.14
2018-07-19T14:50:18.313Z,33.63
2018-07-19T14:55:27.854Z,33.24
2018-07-19T15:01:29.850Z,33.68
2018-07-19T15:06:38.477Z,31.50
2018-07-19T15:11:47.700Z,32.52
2018-07-19T15:16:57.298Z,33.14
2018-07-19T15:22:06.625Z,34.71
2018-07-19T15:27:15.575Z,32.02
2018-07-19T15:32:24.611Z,32.07
2018-07-19T15:37:33.958Z,30.83
2018-07-19T15:42:43.314Z,29.45
2018-07-19T15:47:52.020Z,29.28
2018-07-19T15:53:00.931Z,26.55
2018-07-19T15:58:10.656Z,27.44
2018-07-19T16:03:20.231Z,27.43
2018-07-19T16:08:29.612Z,26.14
2018-07-19T16:13:38.347Z,28.30
2018-07-19T16:18:47.144Z,28.23
2018-07-19T16:23:56.310Z,27.62
2018-07-19T16:29:05.166Z,28.44
2018-07-19T16:34:13.839Z,28.93
2018-07-19T16:39:22.860Z,28.41
2018-07-19T16:44:31.776Z,28.79
2018-07-19T16:49:41.069Z,27.36
2018-07-19T16:54:50.150Z,27.18
2018-07-19T16:59:59.586Z,29.02
2018-07-19T17:05:08.526Z,29.69
2018-07-19T17:10:17.949Z,28.24
2018-07-19T17:15:27.201Z,28.11
2018-07-19T17:20:36.640Z,27.62
2018-07-19T17:25:45.365Z,29.30
2018-07-19T17:30:54.433Z,31.19
2018-07-19T17:36:03.735Z,30.11
2018-07-19T17:41:12.702Z,30.95
2018-07-19T17:46:21.890Z,29.53
2018-07-19T17:51:31.126Z,29.43
2018-07-19T17:56:40.516Z,31.17
2018-07-19T18:01:49.802Z,31.33
2018-07-19T18:06:58.331Z,31.43
2018-07-19T18:12:07.780Z,31.58
2018-07-19T18:17:17.176Z,31.89
2018-07-19T18:22:26.719Z,32.88
2018-07-19T18:27:36.066Z,33.29
2018-07-19T18:32:45.174Z,33.34
2018-07-19T18:37:56.520Z,33.45
2018-07-19T18:43:06.011Z,34.32
2018-07-19T18:48:15.287Z,35.54
2018-07-19T18:53:24.844Z,35.39
2018-07-19T18:58:34.064Z,37.20
2018-07-19T19:03:43.577Z,36.95
2018-07-19T19:08:53.131Z,37.99
2018-07-19T19:14:02.894Z,38.34
2018-07-19T19:19:12.036Z,39.36
2018-07-19T19:24:23.282Z,40.14
2018-07-19T19:29:32.439Z,41.15
2018-07-19T19:34:41.617Z,41.65
2018-07-19T19:39:50.771Z,41.77
2018-07-19T19:45:00.313Z,42.62
2018-07-19T19:50:09.225Z,43.45
2018-07-19T19:55:18.527Z,43.56
2018-07-19T20:00:27.954Z,45.29
2018-07-19T20:05:37.445Z,46.08
2018-07-19T20:10:46.604Z,46.26
2018-07-19T20:15:55.940Z,48.18
2018-07-19T20:21:05.320Z,47.97
2018-07-19T20:26:17.752Z,49.13
2018-07-19T20:31:27.018Z,49.72
2018-07-19T20:42:03.729Z,51.96
2018-07-19T20:47:12.511Z,52.21
2018-07-19T20:52:21.939Z,53.76
2018-07-19T20:57:31.673Z,54.50
2018-07-19T21:02:42.864Z,56.14
2018-07-19T21:07:52.402Z,57.01
2018-07-19T21:13:01.412Z,57.88
2018-07-19T21:18:10.320Z,58.53
2018-07-19T21:23:19.545Z,59.76
2018-07-19T21:28:29.361Z,60.26
2018-07-19T21:33:38.478Z,60.84
2018-07-19T21:38:47.962Z,61.85
2018-07-19T21:43:57.354Z,62.61
2018-07-19T21:49:06.794Z,63.64
2018-07-19T21:54:16.287Z,65.38
2018-07-19T21:59:25.688Z,64.43
2018-07-19T22:04:34.276Z,65.83
2018-07-19T22:09:43.585Z,66.50
2018-07-19T22:14:52.278Z,66.58
2018-07-19T22:20:02.256Z,66.93
2018-07-19T22:25:10.992Z,67.26
2018-07-19T22:30:19.940Z,67.14
2018-07-19T22:35:29.240Z,68.39
2018-07-19T22:40:38.324Z,68.24
2018-07-19T22:45:46.878Z,70.14
2018-07-19T22:50:56.373Z,70.23
2018-07-19T22:56:06.581Z,70.39
2018-07-19T23:01:15.803Z,71.42
2018-07-19T23:06:24.847Z,70.95
2018-07-19T23:11:34.576Z,72.32
2018-07-19T23:16:43.715Z,72.50
2018-07-19T23:21:53.125Z,71.99
2018-07-19T23:27:02.126Z,72.65
2018-07-19T23:32:11.345Z,73.33
2018-07-19T23:37:20.689Z,74.33
2018-07-19T23:42:30.806Z,74.13
2018-07-19T23:47:41.548Z,73.79
2018-07-19T23:52:50.146Z,74.50
2018-07-19T23:57:58.833Z,74.94
